Time;durP1;ratioP1;P1;durP2;ratioP2;P2;SDS_P1;SDS_P2;PMS_P1;PMS_P2;Temp;Humidity;BMP_temperature;BMP_pressure;BME280_temperature;BME280_humidity;BME280_pressure;Samples;Min_cycle;Max_cycle;Signal;HPM_P1;HPM_P2
2023/04/01 00:00:29;;;;;;;5.90;2.20;;;;;;;10.53;90.63;98906.00;3606201;39;20051;-70
2023/04/01 00:02:56;;;;;;;6.45;1.83;;;;;;;10.56;91.13;98908.41;3596100;39;20063;-70
2023/04/01 00:05:24;;;;;;;4.78;1.73;;;;;;;10.65;91.00;98921.84;3605853;39;20335;-73
2023/04/01 00:07:50;;;;;;;5.38;2.10;;;;;;;10.69;90.41;98923.28;3606408;39;20051;-69
2023/04/01 00:10:17;;;;;;;4.93;2.13;;;;;;;10.61;90.82;98903.47;3599406;39;20092;-71
2023/04/01 00:12:43;;;;;;;6.70;2.17;;;;;;;10.68;91.12;98916.19;3606760;39;20082;-70
2023/04/01 00:15:11;;;;;;;4.28;2.20;;;;;;;10.67;91.26;98925.25;3606761;39;20043;-70
2023/04/01 00:17:38;;;;;;;4.60;1.75;;;;;;;10.31;90.61;98870.41;3605589;39;20163;-70
2023/04/01 00:20:07;;;;;;;5.05;2.03;;;;;;;10.67;91.02;98924.41;3605305;39;20322;-69
2023/04/01 00:22:33;;;;;;;4.80;2.20;;;;;;;10.70;91.01;98918.75;3607283;39;20369;-69
2023/04/01 00:24:59;;;;;;;7.10;2.33;;;;;;;10.71;90.32;98917.75;3607026;39;20067;-69
2023/04/01 00:27:25;;;;;;;4.93;2.20;;;;;;;10.68;90.38;98916.19;3609458;39;20329;-69
2023/04/01 00:29:51;;;;;;;5.10;2.08;;;;;;;10.47;90.21;98887.81;3609213;39;20050;-69
2023/04/01 00:32:17;;;;;;;5.10;2.20;;;;;;;10.67;89.89;98919.03;3607398;39;20058;-69
2023/04/01 00:34:44;;;;;;;6.00;1.70;;;;;;;10.57;90.57;98904.75;3608050;39;20067;-68
2023/04/01 00:37:11;;;;;;;4.60;2.08;;;;;;;10.68;90.65;98931.47;3611286;39;20117;-70
2023/04/01 00:39:36;;;;;;;2.00;1.77;;;;;;;10.65;90.24;98926.38;3606884;39;20035;-69
2023/04/01 00:42:03;;;;;;;4.70;1.75;;;;;;;10.60;90.48;98916.06;3609264;39;20044;-69
2023/04/01 00:44:36;;;;;;;4.40;1.67;;;;;;;10.71;90.83;98933.88;3609548;39;20062;-69
2023/04/01 00:47:02;;;;;;;3.92;1.90;;;;;;;10.67;90.02;98936.00;3598480;39;20632;-69
2023/04/01 00:49:45;;;;;;;3.53;2.05;;;;;;;10.68;90.63;98931.47;3607640;39;20047;-68
2023/04/01 00:52:19;;;;;;;5.07;2.27;;;;;;;10.66;90.25;98944.22;3608659;39;20059;-67
2023/04/01 00:54:52;;;;;;;4.43;1.90;;;;;;;10.68;90.82;98944.91;3604372;39;20053;-68
2023/04/01 00:57:24;;;;;;;2.85;2.00;;;;;;;10.65;90.74;98943.34;3605230;39;20050;-66
2023/04/01 00:59:54;;;;;;;3.38;2.35;;;;;;;10.68;90.36;98950.28;3604216;39;20475;-69
2023/04/01 01:02:21;;;;;;;3.33;2.30;;;;;;;10.67;90.56;98953.97;3607226;39;20175;-68
2023/04/01 01:04:47;;;;;;;4.93;2.88;;;;;;;10.68;90.97;98958.34;3605181;39;20053;-66
2023/04/01 01:07:12;;;;;;;2.67;2.47;;;;;;;10.68;90.92;98953.81;3610886;39;20050;-68
2023/04/01 01:09:46;;;;;;;3.88;2.25;;;;;;;10.66;90.41;98955.81;3605981;39;20293;-67
2023/04/01 01:12:50;;;;;;;3.13;2.30;;;;;;;10.65;90.63;98961.31;3606356;39;20099;-67
2023/04/01 01:15:50;;;;;;;3.10;2.40;;;;;;;10.58;91.02;98950.28;3601719;39;20058;-67
2023/04/01 01:18:42;;;;;;;3.83;2.47;;;;;;;10.63;91.66;98952.56;3609949;39;20063;-67
2023/04/01 01:21:40;;;;;;;3.28;2.60;;;;;;;10.58;91.68;98957.50;3606133;39;20128;-68
2023/04/01 01:24:53;;;;;;;5.70;2.42;;;;;;;10.62;91.36;98965.13;3605579;39;20052;-68
2023/04/01 01:27:22;;;;;;;4.70;2.67;;;;;;;10.67;91.96;98962.03;3595042;39;20101;-68
2023/04/01 01:30:35;;;;;;;3.40;2.63;;;;;;;10.67;91.19;98967.41;3611027;39;20058;-68
2023/04/01 01:33:30;;;;;;;3.63;2.72;;;;;;;10.03;91.85;98860.47;3608510;39;20055;-68
2023/04/01 01:36:03;;;;;;;4.38;3.08;;;;;;;10.65;91.68;98958.63;3607931;39;20063;-71
2023/04/01 01:38:33;;;;;;;;;;;;;;;10.64;91.13;98963.16;3608951;39;20051;-68
2023/04/01 01:41:03;;;;;;;3.70;3.40;;;;;;;10.62;92.15;98953.53;3605420;39;19949;-67
2023/04/01 01:43:42;;;;;;;4.32;3.50;;;;;;;10.70;91.59;98972.50;3607119;39;20055;-68
2023/04/01 01:46:20;;;;;;;4.70;4.30;;;;;;;10.69;91.19;98970.81;3609252;39;20055;-68
2023/04/01 01:48:49;;;;;;;4.95;4.50;;;;;;;10.68;91.51;98978.00;3604352;39;20047;-67
2023/04/01 01:51:15;;;;;;;4.00;3.60;;;;;;;10.72;91.93;98981.28;3607371;39;20336;-67
2023/04/01 01:53:41;;;;;;;4.82;4.13;;;;;;;10.72;91.37;98981.28;3599677;39;20051;-67
2023/04/01 01:56:08;;;;;;;4.88;4.43;;;;;;;10.70;91.58;98988.63;3606846;39;20382;-68
2023/04/01 01:58:42;;;;;;;5.55;5.05;;;;;;;10.45;91.25;98947.88;3610711;39;20051;-67
2023/04/01 02:01:20;;;;;;;5.78;5.15;;;;;;;10.61;91.45;98979.56;3607031;39;20081;-68
2023/04/01 02:03:48;;;;;;;5.65;5.15;;;;;;;10.67;91.43;98984.38;3609597;39;20058;-67
2023/04/01 02:06:20;;;;;;;5.78;5.30;;;;;;;10.63;90.76;98988.34;3607444;39;20329;-68
2023/04/01 02:09:10;;;;;;;6.15;5.55;;;;;;;10.63;90.86;98992.88;3609607;39;20114;-67
2023/04/01 02:12:16;;;;;;;6.80;6.20;;;;;;;10.63;91.15;99000.94;3609918;39;20054;-67
2023/04/01 02:14:51;;;;;;;7.55;6.22;;;;;;;10.62;91.22;99000.06;3563012;40;20137;-67
2023/04/01 02:17:21;;;;;;;7.05;6.35;;;;;;;10.64;90.73;99008.00;3601837;39;20313;-67
2023/04/01 02:20:09;;;;;;;9.20;7.47;;;;;;;10.61;90.81;99001.06;3609317;39;20094;-67
2023/04/01 02:22:46;;;;;;;9.95;8.25;;;;;;;10.58;90.33;99005.84;3608730;39;20095;-67
2023/04/01 02:25:19;;;;;;;9.05;7.57;;;;;;;10.60;90.87;99003.88;3609518;39;20051;-67
2023/04/01 02:27:46;;;;;;;10.45;8.55;;;;;;;10.56;90.80;99008.69;3607445;39;20127;-67
2023/04/01 02:30:17;;;;;;;10.50;8.73;;;;;;;10.52;90.45;98992.97;3607466;39;20055;-68
2023/04/01 02:32:45;;;;;;;12.38;8.90;;;;;;;10.53;90.95;99005.41;3610377;39;20062;-67
2023/04/01 02:35:16;;;;;;;10.00;8.55;;;;;;;10.54;91.02;99007.13;3604541;39;20055;-66
2023/04/01 02:37:45;;;;;;;12.55;10.40;;;;;;;10.26;90.67;98963.09;3609560;39;20130;-67
2023/04/01 02:40:14;;;;;;;11.57;9.32;;;;;;;10.52;91.32;99017.16;3609399;39;20055;-67
2023/04/01 02:42:40;;;;;;;12.40;9.70;;;;;;;9.72;90.78;98880.19;3602151;39;20090;-66
2023/04/01 02:45:07;;;;;;;13.98;10.52;;;;;;;10.48;91.02;99005.00;3611647;39;20050;-67
2023/04/01 02:47:33;;;;;;;11.38;9.63;;;;;;;10.52;91.23;99011.78;3608010;39;20063;-67
2023/04/01 02:49:58;;;;;;;13.98;11.00;;;;;;;10.30;90.95;98973.44;3607665;39;20066;-67
2023/04/01 02:52:29;;;;;;;11.15;9.93;;;;;;;10.49;91.12;99012.91;3609078;39;20367;-66
2023/04/01 02:54:57;;;;;;;12.63;10.05;;;;;;;10.51;91.29;99008.25;3611244;39;20283;-66
2023/04/01 02:57:24;;;;;;;12.57;9.88;;;;;;;10.53;91.54;99014.34;3610012;39;20038;-67
2023/04/01 02:59:50;;;;;;;13.52;10.10;;;;;;;10.48;91.34;99013.06;3608240;39;20047;-67
2023/04/01 03:02:16;;;;;;;13.23;10.00;;;;;;;10.49;91.76;99023.66;3607888;39;20054;-68
2023/04/01 03:04:42;;;;;;;12.10;9.18;;;;;;;10.47;91.63;99022.97;3606494;39;20286;-67
2023/04/01 03:07:10;;;;;;;14.07;9.35;;;;;;;10.49;90.85;99028.19;3604142;39;20063;-68
2023/04/01 03:09:37;;;;;;;12.60;9.68;;;;;;;10.51;91.53;99020.84;3608981;39;20385;-68
2023/04/01 03:12:03;;;;;;;12.70;9.00;;;;;;;10.49;91.45;99026.34;3611056;39;20379;-68
2023/04/01 03:14:29;;;;;;;11.63;9.23;;;;;;;10.43;91.53;99025.09;3611018;39;20054;-68
2023/04/01 03:16:55;;;;;;;11.63;9.32;;;;;;;10.50;91.18;99029.88;3610355;39;20381;-69
2023/04/01 03:19:20;;;;;;;9.95;8.75;;;;;;;10.47;90.90;99030.19;3608610;39;20065;-69
2023/04/01 03:21:46;;;;;;;10.60;8.38;;;;;;;10.49;91.42;99037.09;3608577;39;20413;-69
2023/04/01 03:24:11;;;;;;;10.68;8.65;;;;;;;10.47;90.98;99032.88;3609889;39;20051;-70
2023/04/01 03:26:37;;;;;;;10.88;8.80;;;;;;;10.48;91.46;99034.56;3610267;39;20058;-71
2023/04/01 03:29:03;;;;;;;11.77;8.70;;;;;;;10.45;90.63;99044.56;3608174;39;20055;-70
2023/04/01 03:31:28;;;;;;;10.82;8.05;;;;;;;10.39;91.75;99034.38;3607212;39;20367;-69
2023/04/01 03:33:54;;;;;;;11.45;7.40;;;;;;;10.47;91.83;99046.28;3608816;39;20063;-70
2023/04/01 03:36:20;;;;;;;8.45;7.65;;;;;;;10.44;91.45;99036.66;3606894;39;20047;-70
2023/04/01 03:38:46;;;;;;;10.65;8.02;;;;;;;10.47;91.62;99043.59;3608796;39;20047;-69
2023/04/01 03:41:14;;;;;;;12.27;8.73;;;;;;;10.25;91.00;99024.00;3610341;39;20321;-70
2023/04/01 03:43:40;;;;;;;9.23;8.18;;;;;;;10.42;91.36;99055.59;3609448;39;20086;-70
2023/04/01 03:46:06;;;;;;;10.60;8.52;;;;;;;10.44;91.75;99050.94;3608206;39;20067;-69
2023/04/01 03:48:31;;;;;;;10.88;8.68;;;;;;;10.44;91.57;99055.47;3598305;39;20055;-68
2023/04/01 03:50:57;;;;;;;8.52;7.65;;;;;;;10.39;91.55;99061.25;3604378;39;20329;-67
2023/04/01 03:53:23;;;;;;;8.88;7.78;;;;;;;10.43;91.81;99059.13;3604840;39;20062;-68
2023/04/01 03:55:51;;;;;;;9.73;8.00;;;;;;;10.44;91.99;99056.31;3606779;39;20051;-68
2023/04/01 03:58:17;;;;;;;8.45;7.65;;;;;;;10.44;90.92;99067.06;3609823;39;20054;-68
2023/04/01 04:00:43;;;;;;;11.60;8.20;;;;;;;10.44;91.33;99059.00;3599730;39;20055;-68
2023/04/01 04:03:08;;;;;;;8.88;7.97;;;;;;;10.43;91.80;99062.69;3610469;39;20054;-68
2023/04/01 04:05:34;;;;;;;8.48;7.57;;;;;;;10.41;91.53;99061.13;3605548;39;20071;-67
2023/04/01 04:08:00;;;;;;;9.00;8.10;;;;;;;10.42;91.60;99066.34;3603908;39;20293;-67
2023/04/01 04:10:25;;;;;;;8.25;7.45;;;;;;;10.36;91.74;99063.34;3607803;39;20063;-68
2023/04/01 04:12:52;;;;;;;7.75;6.68;;;;;;;10.07;91.31;99020.28;3607079;39;20058;-67
2023/04/01 04:15:18;;;;;;;7.70;6.85;;;;;;;10.38;91.17;99077.50;3608414;39;20159;-66
2023/04/01 04:17:48;;;;;;;7.78;7.03;;;;;;;10.37;91.25;99067.72;3606237;39;20062;-67
2023/04/01 04:20:14;;;;;;;8.15;7.35;;;;;;;10.39;91.54;99076.50;3609605;39;20104;-66
2023/04/01 04:22:39;;;;;;;8.55;7.22;;;;;;;10.37;91.37;99087.41;3606074;39;20063;-66
2023/04/01 04:25:06;;;;;;;7.93;7.22;;;;;;;10.35;91.86;99085.84;3606012;39;20059;-67
2023/04/01 04:27:33;;;;;;;7.70;6.65;;;;;;;10.08;91.72;99056.84;3607956;39;20136;-67
2023/04/01 04:29:59;;;;;;;6.97;6.20;;;;;;;10.33;91.10;99090.47;3607857;39;20056;-67
2023/04/01 04:32:24;;;;;;;6.93;6.22;;;;;;;10.29;91.64;99091.75;3607960;39;22024;-67
2023/04/01 04:34:50;;;;;;;6.97;6.38;;;;;;;10.29;91.88;99092.59;3609296;39;20055;-67
2023/04/01 04:37:15;;;;;;;6.75;6.03;;;;;;;10.27;91.46;99105.28;3606081;39;20385;-67
2023/04/01 04:39:41;;;;;;;6.32;5.72;;;;;;;10.24;91.38;99100.16;3608482;39;20046;-66
2023/04/01 04:42:07;;;;;;;6.95;6.15;;;;;;;10.28;92.27;99100.81;3609773;39;20059;-66
2023/04/01 04:44:32;;;;;;;6.93;6.18;;;;;;;10.23;91.41;99098.47;3607556;39;20377;-66
2023/04/01 04:46:58;;;;;;;5.78;5.28;;;;;;;10.24;91.67;99102.84;3608297;39;20059;-66
2023/04/01 04:49:23;;;;;;;6.22;5.40;;;;;;;10.22;91.87;99107.53;3607352;39;20059;-66
2023/04/01 04:51:49;;;;;;;5.50;5.07;;;;;;;10.19;91.92;99110.47;3607775;39;20054;-66
2023/04/01 04:54:15;;;;;;;5.55;5.07;;;;;;;10.19;91.95;99114.00;3607763;39;20051;-66
2023/04/01 04:56:40;;;;;;;5.85;5.35;;;;;;;10.18;92.14;99119.50;3605606;39;20054;-66
2023/04/01 04:59:06;;;;;;;5.13;4.50;;;;;;;10.16;92.24;99114.28;3589656;39;20062;-66
2023/04/01 05:01:33;;;;;;;5.28;4.88;;;;;;;10.15;91.64;99117.09;3609811;39;20055;-67
2023/04/01 05:03:59;;;;;;;4.75;4.35;;;;;;;10.15;91.38;99127.84;3605686;39;20051;-66
2023/04/01 05:06:29;;;;;;;4.68;4.25;;;;;;;10.10;91.45;99122.03;3607675;39;20047;-65
2023/04/01 05:08:55;;;;;;;4.90;3.90;;;;;;;10.12;91.66;99136.16;3606813;39;20133;-66
2023/04/01 05:11:20;;;;;;;6.30;4.03;;;;;;;10.10;92.12;99140.81;3605069;39;20046;-66
2023/04/01 05:13:47;;;;;;;3.85;3.55;;;;;;;10.10;91.15;99136.28;3605677;39;20050;-66
2023/04/01 05:16:17;;;;;;;4.82;3.90;;;;;;;9.90;91.51;99107.66;3605541;39;20055;-67
2023/04/01 05:18:43;;;;;;;4.53;3.88;;;;;;;10.03;91.24;99131.59;3607366;39;20057;-66
2023/04/01 05:21:12;;;;;;;3.55;3.25;;;;;;;10.07;91.04;99147.28;3608043;39;20051;-65
2023/04/01 05:23:39;;;;;;;3.80;3.22;;;;;;;10.06;91.14;99134.03;3606489;39;20464;-66
2023/04/01 05:26:08;;;;;;;3.75;3.45;;;;;;;9.96;90.85;99134.81;3609027;39;20051;-65
2023/04/01 05:28:34;;;;;;;3.67;3.38;;;;;;;10.06;91.44;99148.28;3605243;39;20051;-66
2023/04/01 05:31:02;;;;;;;4.40;3.60;;;;;;;10.09;91.96;99157.91;3608790;39;20053;-66
2023/04/01 05:33:30;;;;;;;3.25;2.95;;;;;;;10.05;91.81;99160.00;3607925;39;20470;-66
2023/04/01 05:35:56;;;;;;;3.35;2.92;;;;;;;10.10;91.94;99156.91;3611374;39;20050;-66
2023/04/01 05:38:21;;;;;;;3.63;3.33;;;;;;;9.73;91.50;99106.41;3610310;39;20070;-66
2023/04/01 05:40:47;;;;;;;3.90;3.50;;;;;;;10.09;91.87;99165.97;3612059;39;20046;-65
2023/04/01 05:43:13;;;;;;;3.67;3.38;;;;;;;10.12;91.31;99181.81;3611625;39;20050;-66
2023/04/01 05:45:38;;;;;;;4.18;3.85;;;;;;;10.09;91.01;99182.06;3609947;39;20417;-66
2023/04/01 05:48:05;;;;;;;4.40;3.90;;;;;;;10.07;91.13;99186.72;3608140;39;20061;-65
2023/04/01 05:50:31;;;;;;;4.75;4.18;;;;;;;10.09;91.95;99193.66;3610005;39;20277;-67
2023/04/01 05:52:57;;;;;;;4.40;3.97;;;;;;;10.10;91.63;99191.81;3605625;39;20051;-65
2023/04/01 05:55:22;;;;;;;4.72;4.32;;;;;;;9.99;91.49;99171.28;3607726;39;20074;-68
2023/04/01 05:57:49;;;;;;;4.53;4.13;;;;;;;10.09;91.79;99203.56;3608071;39;20051;-67
2023/04/01 06:00:17;;;;;;;5.25;4.75;;;;;;;10.04;91.95;99203.94;3611059;39;20522;-64
2023/04/01 06:02:43;;;;;;;5.43;4.93;;;;;;;10.08;91.65;99208.03;3610806;39;20164;-65
2023/04/01 06:05:22;;;;;;;5.53;4.88;;;;;;;9.91;92.51;99181.81;3609745;39;20389;-65
2023/04/01 06:08:00;;;;;;;5.40;5.00;;;;;;;10.12;92.20;99212.19;3609431;39;20385;-65
2023/04/01 06:10:50;;;;;;;5.85;4.82;;;;;;;10.11;92.62;99221.22;3610407;39;20079;-66
2023/04/01 06:13:34;;;;;;;6.43;5.65;;;;;;;10.15;92.40;99230.72;3610145;39;20070;-66
2023/04/01 06:16:15;;;;;;;7.80;5.68;;;;;;;10.13;92.56;99237.19;3608687;39;20202;-66
2023/04/01 06:19:30;;;;;;;5.78;5.15;;;;;;;10.16;92.55;99228.88;3610196;39;20059;-67
2023/04/01 06:22:28;;;;;;;6.07;5.47;;;;;;;10.18;92.79;99240.31;3606367;39;20054;-66
2023/04/01 06:25:05;;;;;;;6.80;6.10;;;;;;;10.15;92.84;99237.94;3609022;39;20298;-65
2023/04/01 06:27:51;;;;;;;7.38;6.15;;;;;;;10.23;93.04;99249.69;3609316;39;20055;-66
2023/04/01 06:30:45;;;;;;;7.10;5.88;;;;;;;10.22;92.62;99244.47;3611145;39;20124;-66
2023/04/01 06:33:32;;;;;;;6.30;5.70;;;;;;;10.21;92.75;99253.50;3609023;39;20051;-66
2023/04/01 06:36:22;;;;;;;6.60;5.88;;;;;;;10.17;92.54;99252.91;3605858;39;20059;-66
2023/04/01 06:39:12;;;;;;;7.05;6.35;;;;;;;10.22;92.51;99258.75;3608052;39;20374;-66
2023/04/01 06:42:24;;;;;;;8.30;6.90;;;;;;;10.26;92.16;99258.47;3609730;39;20059;-67
2023/04/01 06:45:22;;;;;;;9.18;8.13;;;;;;;10.25;93.10;99268.38;3608691;39;20059;-67
2023/04/01 06:48:20;;;;;;;7.78;6.97;;;;;;;10.31;92.76;99267.88;3603557;39;20051;-68
2023/04/01 06:51:10;;;;;;;9.85;8.43;;;;;;;10.34;92.54;99273.00;3610537;39;20047;-67
2023/04/01 06:54:06;;;;;;;10.20;8.68;;;;;;;8.90;92.15;99029.47;3609985;39;20389;-68
2023/04/01 06:56:36;;;;;;;10.00;9.00;;;;;;;10.41;92.74;99289.44;3606462;39;20087;-69
2023/04/01 06:59:06;;;;;;;10.55;9.35;;;;;;;10.46;92.93;99287.19;3608064;39;20058;-68
2023/04/01 07:01:49;;;;;;;11.55;9.68;;;;;;;10.47;92.29;99288.91;3607806;39;20065;-68
2023/04/01 07:04:32;;;;;;;11.23;9.90;;;;;;;10.56;92.96;99292.63;3607055;39;20047;-68
2023/04/01 07:07:07;;;;;;;11.80;10.60;;;;;;;10.59;92.81;99292.34;3606790;39;20067;-70
2023/04/01 07:09:41;;;;;;;12.80;11.07;;;;;;;10.62;92.20;99294.78;3608157;39;20066;-68
2023/04/01 07:12:31;;;;;;;12.95;11.65;;;;;;;10.68;92.11;99299.63;3610712;39;20066;-69
2023/04/01 07:15:13;;;;;;;14.25;12.25;;;;;;;10.69;91.87;99299.50;3615208;39;20369;-69
2023/04/01 07:17:43;;;;;;;13.70;11.70;;;;;;;10.61;91.87;99285.03;3610813;39;20128;-73
2023/04/01 07:20:30;;;;;;;13.88;12.18;;;;;;;10.74;91.23;99309.84;3606068;39;20104;-70
2023/04/01 07:23:06;;;;;;;14.13;12.50;;;;;;;10.76;91.51;99301.66;3606332;39;20051;-70
2023/04/01 07:25:41;;;;;;;15.07;13.38;;;;;;;10.86;91.29;99321.38;3611012;39;20054;-72
2023/04/01 07:28:16;;;;;;;13.75;11.90;;;;;;;10.87;90.59;99318.53;3605204;39;20091;-70
2023/04/01 07:31:00;;;;;;;14.82;12.77;;;;;;;10.90;90.71;99325.50;3608333;39;20049;-69
2023/04/01 07:33:49;;;;;;;16.88;13.10;;;;;;;10.93;90.84;99334.13;3607695;39;20368;-71
2023/04/01 07:36:31;;;;;;;17.15;13.82;;;;;;;10.99;90.52;99337.28;3606577;39;20079;-71
2023/04/01 07:39:08;;;;;;;18.42;14.00;;;;;;;10.97;89.72;99345.47;3605252;39;20062;-68
2023/04/01 07:41:51;;;;;;;16.85;13.88;;;;;;;11.03;nan;99342.25;3605890;39;20401;-68
2023/04/01 07:44:36;;;;;;;18.80;14.27;;;;;;;10.95;89.58;99335.84;3610765;39;20312;-68
2023/04/01 07:47:34;;;;;;;17.38;14.57;;;;;;;11.07;89.72;99350.91;3611421;39;20139;-68
2023/04/01 07:50:26;;;;;;;18.33;14.30;;;;;;;11.07;89.04;99354.47;3609058;39;20054;-68
2023/04/01 07:53:25;;;;;;;18.23;14.35;;;;;;;11.07;88.87;99362.53;3609413;39;20308;-67
2023/04/01 07:56:11;;;;;;;21.02;16.38;;;;;;;11.00;89.32;99358.66;3605983;39;20160;-67
2023/04/01 07:59:02;;;;;;;19.40;16.40;;;;;;;11.06;89.16;99371.56;3607827;39;20271;-67
2023/04/01 08:02:08;;;;;;;31.63;25.70;;;;;;;11.02;89.16;99356.69;3611956;39;20135;-66
2023/04/01 08:05:07;;;;;;;26.05;20.90;;;;;;;11.09;88.85;99375.81;3608960;39;20087;-67
2023/04/01 08:08:17;;;;;;;21.02;14.25;;;;;;;11.08;88.26;99384.88;3611479;39;20042;-67
2023/04/01 08:11:07;;;;;;;18.45;15.00;;;;;;;11.08;88.86;99380.34;3563873;40;20166;-67
2023/04/01 08:14:01;;;;;;;22.25;15.38;;;;;;;11.23;89.38;99388.94;3563486;40;20060;-67
2023/04/01 08:17:15;;;;;;;58.35;46.35;;;;;;;11.39;89.69;99396.50;3591283;39;20059;-67
2023/04/01 08:20:00;;;;;;;18.40;14.65;;;;;;;11.52;88.18;99396.28;3603430;39;20071;-67
2023/04/01 08:22:42;;;;;;;20.00;14.32;;;;;;;11.55;87.42;99399.53;3604292;39;20397;-68
2023/04/01 08:25:25;;;;;;;22.27;16.05;;;;;;;11.61;88.06;99403.53;3603430;39;20090;-68
2023/04/01 08:28:05;;;;;;;21.52;15.52;;;;;;;11.62;87.68;99400.69;3598948;39;20061;-68
2023/04/01 08:30:58;;;;;;;21.70;15.52;;;;;;;11.71;87.50;99411.63;3610026;39;20063;-68
2023/04/01 08:33:28;;;;;;;18.00;14.30;;;;;;;11.74;87.69;99420.28;3607207;39;20113;-68
2023/04/01 08:36:16;;;;;;;18.38;14.10;;;;;;;11.82;87.35;99423.13;3607329;39;20303;-67
2023/04/01 08:39:10;;;;;;;19.73;13.82;;;;;;;11.54;85.99;99375.44;3606220;39;20059;-67
2023/04/01 08:42:18;;;;;;;17.88;12.82;;;;;;;11.77;85.35;99428.09;3606171;39;20397;-67
2023/04/01 08:45:20;;;;;;;18.92;12.75;;;;;;;11.71;84.92;99431.31;3605586;39;20054;-67
2023/04/01 08:48:16;;;;;;;15.40;12.13;;;;;;;11.71;85.16;99435.88;3609742;39;20055;-68
2023/04/01 08:51:28;;;;;;;17.17;12.23;;;;;;;11.74;85.14;99431.06;3607160;39;20121;-68
2023/04/01 08:54:01;;;;;;;15.70;12.23;;;;;;;11.85;85.90;99444.41;3605863;39;20062;-67
2023/04/01 08:56:46;;;;;;;15.47;11.40;;;;;;;11.92;84.85;99443.88;3604632;39;20091;-67
2023/04/01 08:59:40;;;;;;;15.15;10.88;;;;;;;11.98;84.71;99448.72;3605819;39;20054;-67
2023/04/01 09:02:24;;;;;;;;;;;;;;;12.05;84.47;99460.63;3606745;39;20043;-66
2023/04/01 09:05:55;;;;;;;15.13;10.60;;;;;;;12.14;84.29;99458.97;3609278;39;20406;-67
2023/04/01 09:08:49;;;;;;;14.57;10.40;;;;;;;12.18;83.53;99469.34;3609781;39;20054;-68
2023/04/01 09:11:50;;;;;;;15.70;9.77;;;;;;;12.23;83.24;99469.75;3597227;39;20062;-67
2023/04/01 09:14:21;;;;;;;12.20;8.45;;;;;;;12.31;82.70;99478.00;3608660;39;20054;-68
2023/04/01 09:16:58;;;;;;;9.73;8.45;;;;;;;12.31;81.94;99482.53;3609577;39;20054;-66
2023/04/01 09:20:06;;;;;;;14.32;10.65;;;;;;;12.28;82.14;99485.53;3606891;39;20144;-66
2023/04/01 09:23:10;;;;;;;16.85;12.85;;;;;;;12.26;82.37;99480.25;3607981;39;20139;-66
2023/04/01 09:25:51;;;;;;;9.05;8.02;;;;;;;12.25;82.86;99489.34;3605987;39;20055;-66
2023/04/01 09:28:37;;;;;;;10.05;7.80;;;;;;;12.21;83.50;99487.91;3609611;39;20059;-65
2023/04/01 09:31:47;;;;;;;10.10;8.55;;;;;;;12.18;83.50;99488.19;3609451;39;20057;-66
2023/04/01 09:34:36;;;;;;;9.55;8.60;;;;;;;12.13;83.52;99494.97;3610638;39;20411;-66
2023/04/01 09:37:34;;;;;;;10.13;8.25;;;;;;;12.00;83.61;99495.22;3607858;39;20051;-67
2023/04/01 09:40:11;;;;;;;9.55;7.55;;;;;;;12.01;83.71;99502.31;3610615;39;20357;-66
2023/04/01 09:43:08;;;;;;;7.93;7.13;;;;;;;11.77;84.21;99471.16;3608270;39;20059;-67
2023/04/01 09:46:06;;;;;;;7.47;6.78;;;;;;;11.94;84.47;99511.94;3597599;39;20155;-67
2023/04/01 09:49:06;;;;;;;7.25;6.55;;;;;;;11.90;83.92;99499.72;3608346;39;20080;-67
2023/04/01 09:51:46;;;;;;;7.43;6.72;;;;;;;11.87;84.27;99513.47;3612000;39;20062;-66
2023/04/01 09:54:59;;;;;;;7.07;6.38;;;;;;;11.85;84.66;99508.19;3608040;39;20062;-66
2023/04/01 09:58:17;;;;;;;9.15;6.95;;;;;;;11.81;83.86;99518.34;3610475;39;20036;-66
2023/04/01 10:01:41;;;;;;;7.88;6.47;;;;;;;11.84;84.46;99520.81;3611048;39;20054;-67
2023/04/01 10:04:50;;;;;;;7.50;6.70;;;;;;;11.85;83.76;99527.03;3605398;39;20557;-67
2023/04/01 10:07:49;;;;;;;9.80;7.13;;;;;;;11.84;83.63;99525.31;3606268;39;20051;-66
2023/04/01 10:10:37;;;;;;;9.68;7.45;;;;;;;11.87;83.88;99537.69;3606283;39;20059;-66
2023/04/01 10:13:36;;;;;;;8.10;7.30;;;;;;;11.85;84.14;99535.97;3607995;39;20155;-66
2023/04/01 10:16:34;;;;;;;8.40;7.53;;;;;;;11.87;83.70;99537.69;3607860;39;20066;-66
2023/04/01 10:19:57;;;;;;;8.93;7.35;;;;;;;11.90;84.47;99540.13;3608920;39;20054;-66
2023/04/01 10:22:35;;;;;;;9.15;7.68;;;;;;;11.88;83.71;99548.31;3609524;39;20131;-67
2023/04/01 10:25:03;;;;;;;8.90;8.00;;;;;;;11.83;83.20;99551.41;3612164;39;20039;-67
2023/04/01 10:27:37;;;;;;;10.05;8.32;;;;;;;11.82;83.67;99552.38;3609357;39;20313;-68
2023/04/01 10:30:54;;;;;;;10.75;8.10;;;;;;;11.77;83.73;99557.31;3607571;39;20058;-66
2023/04/01 10:33:57;;;;;;;17.83;14.90;;;;;;;11.70;83.50;99550.72;3607917;39;20047;-66
2023/04/01 10:36:48;;;;;;;11.15;9.43;;;;;;;11.71;83.53;99554.31;3588668;39;20052;-66
2023/04/01 10:40:06;;;;;;;10.80;8.85;;;;;;;11.67;83.81;99564.50;3608014;39;20079;-66
2023/04/01 10:43:02;;;;;;;12.90;9.88;;;;;;;11.66;83.69;99562.75;3607002;39;20065;-66
2023/04/01 10:46:12;;;;;;;11.00;9.90;;;;;;;11.62;84.46;99561.34;3609548;39;20059;-66
2023/04/01 10:49:16;;;;;;;10.50;9.35;;;;;;;11.62;84.54;99567.56;3611441;39;20050;-66
2023/04/01 10:51:59;;;;;;;11.55;9.40;;;;;;;11.62;84.68;99566.72;3611025;39;20143;-67
2023/04/01 10:54:47;;;;;;;14.32;11.18;;;;;;;11.54;85.05;99559.28;3611220;39;20057;-69
2023/04/01 10:57:54;;;;;;;15.40;10.77;;;;;;;11.59;85.50;99567.81;3612522;39;20050;-66
2023/04/01 11:00:34;;;;;;;12.48;10.75;;;;;;;11.61;85.28;99565.88;3612700;39;20031;-67
2023/04/01 11:03:33;;;;;;;14.25;11.35;;;;;;;11.56;85.41;99572.63;3607593;39;20079;-68
2023/04/01 11:06:43;;;;;;;15.35;11.27;;;;;;;11.58;85.59;99576.06;3610433;39;20345;-67
2023/04/01 11:09:34;;;;;;;13.18;11.00;;;;;;;11.48;85.40;99581.38;3605744;39;20128;-66
2023/04/01 11:12:27;;;;;;;15.75;11.55;;;;;;;11.50;86.71;99581.22;3610578;39;20317;-67
2023/04/01 11:15:07;;;;;;;14.70;11.50;;;;;;;11.45;86.92;99587.00;3598115;39;20047;-67
2023/04/01 11:18:20;;;;;;;15.70;12.00;;;;;;;11.46;86.94;99588.72;3608171;39;20054;-66
2023/04/01 11:21:46;;;;;;;15.77;11.35;;;;;;;11.56;87.88;99591.47;3608550;39;20302;-67
2023/04/01 11:24:39;;;;;;;14.10;11.02;;;;;;;11.56;86.24;99600.38;3602546;39;20066;-68
2023/04/01 11:27:50;;;;;;;11.63;10.30;;;;;;;11.59;86.48;99605.50;3607044;39;20083;-68
2023/04/01 11:30:49;;;;;;;15.18;11.10;;;;;;;11.66;85.81;99607.69;3603988;39;20100;-68
2023/04/01 11:33:30;;;;;;;13.90;10.48;;;;;;;11.66;86.27;99611.22;3605995;39;20746;-67
2023/04/01 11:36:23;;;;;;;11.95;10.57;;;;;;;11.66;86.40;99610.38;3607598;39;20047;-69
2023/04/01 11:39:15;;;;;;;11.57;9.45;;;;;;;11.71;86.49;99613.53;3607566;39;20051;-68
2023/04/01 11:42:15;;;;;;;11.10;9.32;;;;;;;11.71;86.57;99614.38;3610441;39;20047;-66
2023/04/01 11:45:25;;;;;;;10.73;8.73;;;;;;;11.03;86.64;99505.41;3607893;39;20063;-66
2023/04/01 11:48:09;;;;;;;10.43;9.32;;;;;;;11.75;87.27;99623.88;3607765;39;20354;-67
2023/04/01 11:50:46;;;;;;;;;;;;;;;11.68;86.77;99628.09;3606398;39;20124;-67
2023/04/01 11:53:34;;;;;;;15.15;10.32;;;;;;;11.69;87.34;99627.09;3606634;39;19937;-66
2023/04/01 11:56:54;;;;;;;11.57;9.90;;;;;;;11.69;88.36;99627.09;3610903;39;20320;-67
2023/04/01 11:59:30;;;;;;;89.97;74.43;;;;;;;11.66;88.41;99635.44;3608087;39;20512;-66
2023/04/01 12:02:45;;;;;;;21.65;15.70;;;;;;;11.59;88.36;99645.88;3610890;39;20062;-65
2023/04/01 12:05:52;;;;;;;10.40;9.18;;;;;;;11.51;89.16;99655.59;3568778;40;20072;-65
2023/04/01 12:08:57;;;;;;;10.07;9.05;;;;;;;11.51;89.27;99648.38;3571153;40;20057;-65
2023/04/01 12:12:07;;;;;;;11.10;8.98;;;;;;;11.52;89.34;99657.31;3606984;39;20398;-65
2023/04/01 12:15:11;;;;;;;8.77;7.22;;;;;;;11.48;89.46;99655.84;3575509;40;20453;-64
2023/04/01 12:17:50;;;;;;;8.20;7.33;;;;;;;11.47;90.06;99655.00;3607498;39;20046;-63
2023/04/01 12:20:48;;;;;;;8.32;7.45;;;;;;;11.48;89.94;99661.22;3606497;39;20693;-64
2023/04/01 12:24:03;;;;;;;8.38;7.53;;;;;;;11.50;89.95;99670.88;3606449;39;20122;-64
2023/04/01 12:26:41;;;;;;;8.50;7.60;;;;;;;11.55;89.98;99662.44;3607246;39;20047;-63
2023/04/01 12:29:29;;;;;;;8.35;7.43;;;;;;;11.54;90.16;99672.31;3608142;39;20047;-64
2023/04/01 12:32:29;;;;;;;7.80;7.10;;;;;;;11.55;89.46;99676.75;3608209;39;20057;-64